Morrison, Colorado
Current Conditions -  °F | °C
As of 5:46 AM on Friday 19 Dec 2014 (Local Time) from KBJC Reporting Station
Broken Clouds Broken Clouds  
Wind Chill: 30°   Ceiling: 16000
Heat Index: 30°   Visibility: 20mi
Dew Point: 25°   Wind: 0mph
Humidity: 80%   Direction: NA
Pressure: 30.07"   Gusts: NA
Location:  39.65°N, 105.19°W
Report Text: KBJC 191246Z 00000KT 20SM SCT080 BKN160 M01/M04 A3007
Loading
Personal Weather Stations






























Interactive Weather Map New forecast layout! Learn more

10-Day Weather Forecast

Advertisements
Track Severe Weather on mobile